Time;durP1;ratioP1;P1;durP2;ratioP2;P2;SDS_P1;SDS_P2;PMS_P1;PMS_P2;Temp;Humidity;BMP_temperature;BMP_pressure;BME280_temperature;BME280_humidity;BME280_pressure;Samples;Min_cycle;Max_cycle;Signal;HPM_P1;HPM_P2
2020/12/31 00:01:30;;;;;;;18.17;9.95;;;;;;;8.51;77.91;99985.48;1732792;81;21081;-69
2020/12/31 00:03:58;;;;;;;16.15;8.90;;;;;;;8.50;77.89;99983.80;1732721;81;21120;-69
2020/12/31 00:06:26;;;;;;;14.87;9.70;;;;;;;8.49;77.85;99987.39;1732604;81;21189;-69
2020/12/31 00:08:53;;;;;;;14.50;9.75;;;;;;;8.48;77.79;99984.38;1732607;81;21081;-69
2020/12/31 00:11:21;;;;;;;18.17;10.23;;;;;;;8.47;77.74;99983.18;1732560;81;24115;-69
2020/12/31 00:13:48;;;;;;;21.68;12.55;;;;;;;8.46;77.69;99986.77;1732485;81;21128;-69
2020/12/31 00:16:17;;;;;;;18.85;11.53;;;;;;;8.44;77.67;99982.95;1732735;81;21122;-69
2020/12/31 00:18:45;;;;;;;18.15;11.15;;;;;;;8.44;77.67;99986.06;1732613;81;21073;-69
2020/12/31 00:21:13;;;;;;;21.52;11.97;;;;;;;8.42;77.63;99993.23;1727972;81;21073;-69
2020/12/31 00:23:40;;;;;;;18.62;11.25;;;;;;;8.39;77.64;99982.92;1700179;83;22094;-69
2020/12/31 00:26:09;;;;;;;22.50;12.73;;;;;;;8.38;77.66;99979.94;1725094;81;21148;-69
2020/12/31 00:28:36;;;;;;;19.92;11.20;;;;;;;8.34;77.63;99981.95;1707750;84;21589;-69
2020/12/31 00:31:04;;;;;;;15.10;10.13;;;;;;;8.33;77.58;99981.59;1707669;84;21466;-69
2020/12/31 00:33:31;;;;;;;15.40;10.60;;;;;;;8.30;77.56;99983.15;1699794;83;21146;-69
2020/12/31 00:35:59;;;;;;;14.68;10.00;;;;;;;8.26;77.56;99978.58;1725305;81;23077;-69
2020/12/31 00:38:27;;;;;;;19.95;11.18;;;;;;;8.24;77.54;99979.17;1699456;83;21173;-69
2020/12/31 00:40:55;;;;;;;15.08;10.32;;;;;;;8.22;77.55;99980.26;1720092;83;21088;-68
2020/12/31 00:43:23;;;;;;;18.95;11.68;;;;;;;8.20;77.57;99972.48;1722390;81;21128;-70
2020/12/31 00:45:51;;;;;;;19.30;10.75;;;;;;;8.17;77.56;99978.44;1699813;83;21109;-69
2020/12/31 00:48:19;;;;;;;15.40;11.05;;;;;;;8.15;77.55;99976.41;1724397;81;22085;-69
2020/12/31 00:50:49;;;;;;;18.45;11.93;;;;;;;8.12;77.53;99985.37;1707062;84;21533;-69
2020/12/31 00:53:17;;;;;;;15.93;11.75;;;;;;;8.12;77.47;99981.91;1700637;84;21450;-69
2020/12/31 00:55:44;;;;;;;18.52;11.00;;;;;;;8.11;77.45;99984.18;1707541;84;21116;-68
2020/12/31 00:58:12;;;;;;;16.15;11.48;;;;;;;8.07;77.42;99985.34;1677787;85;21050;-69
2020/12/31 01:00:40;;;;;;;17.80;12.18;;;;;;;8.02;77.40;99978.66;1707571;84;21917;-69
2020/12/31 01:03:09;;;;;;;16.82;11.43;;;;;;;7.99;77.42;99985.44;1697334;83;21135;-69
2020/12/31 01:05:38;;;;;;;17.57;11.57;;;;;;;7.96;77.44;99986.98;1677361;84;21110;-69
2020/12/31 01:08:05;;;;;;;19.42;11.60;;;;;;;7.94;77.44;99978.38;1678559;84;21129;-69
2020/12/31 01:10:33;;;;;;;13.30;9.70;;;;;;;7.92;77.45;99984.23;1697436;84;21161;-69
2020/12/31 01:13:01;;;;;;;13.53;9.80;;;;;;;7.89;77.45;99984.92;1695766;82;22871;-69
2020/12/31 01:15:29;;;;;;;17.57;11.28;;;;;;;7.86;77.49;99988.63;1678911;83;21192;-69
2020/12/31 01:17:58;;;;;;;13.70;9.23;;;;;;;7.82;77.49;99981.94;1725343;81;21158;-69
2020/12/31 01:20:27;;;;;;;16.35;11.48;;;;;;;7.78;77.49;99980.47;1674462;83;21201;-69
2020/12/31 01:22:54;;;;;;;13.38;9.43;;;;;;;7.73;77.50;99978.19;1689185;82;21437;-68
2020/12/31 01:25:22;;;;;;;14.33;9.33;;;;;;;7.68;77.51;99968.95;1707753;82;22971;-69
2020/12/31 01:27:50;;;;;;;18.65;11.00;;;;;;;7.63;77.53;99966.68;1708185;82;21168;-69
2020/12/31 01:30:17;;;;;;;13.38;8.85;;;;;;;7.60;77.58;99973.93;1707644;82;21136;-69
2020/12/31 01:32:45;;;;;;;16.17;10.23;;;;;;;7.56;77.60;99969.86;1707941;82;21106;-69
2020/12/31 01:35:13;;;;;;;13.83;10.13;;;;;;;7.53;77.63;99966.12;1681049;84;21372;-69
2020/12/31 01:37:40;;;;;;;15.85;10.98;;;;;;;7.49;77.63;99958.95;1707210;82;22073;-69
2020/12/31 01:40:09;;;;;;;15.23;10.95;;;;;;;7.43;77.65;99958.95;1706029;82;21140;-69
2020/12/31 01:42:42;;;;;;;15.23;10.32;;;;;;;7.39;77.64;99958.78;1706886;82;21164;-69
2020/12/31 01:45:11;;;;;;;19.25;11.68;;;;;;;7.33;77.65;99951.34;1707528;84;21094;-69
2020/12/31 01:47:39;;;;;;;15.90;11.30;;;;;;;7.28;77.69;99947.39;1707857;82;21225;-69
2020/12/31 01:50:07;;;;;;;20.10;11.80;;;;;;;7.22;77.74;99942.09;1707706;83;21985;-69
2020/12/31 01:52:35;;;;;;;23.57;14.55;;;;;;;7.18;77.76;99948.52;1707750;82;21109;-69
2020/12/31 01:55:03;;;;;;;17.82;12.15;;;;;;;7.14;77.80;99951.86;1707727;82;21074;-69
2020/12/31 01:57:31;;;;;;;25.30;12.88;;;;;;;7.11;77.84;99953.38;1707945;82;21097;-69
2020/12/31 01:59:59;;;;;;;26.35;18.17;;;;;;;7.07;77.88;99953.23;1707825;82;21402;-69
2020/12/31 02:02:27;;;;;;;24.47;17.45;;;;;;;7.05;77.90;99964.81;1707982;82;21933;-69
2020/12/31 02:04:54;;;;;;;17.20;11.65;;;;;;;7.00;77.93;99953.30;1708425;82;21500;-69
2020/12/31 02:07:23;;;;;;;26.40;14.38;;;;;;;6.99;77.96;99959.98;1737990;81;21053;-69
2020/12/31 02:09:50;;;;;;;17.30;11.53;;;;;;;6.95;77.98;99953.25;1738297;81;21136;-69
2020/12/31 02:12:18;;;;;;;19.75;12.18;;;;;;;6.92;78.08;99946.44;1736421;81;21132;-69
2020/12/31 02:14:51;;;;;;;17.82;11.85;;;;;;;6.91;78.10;99951.80;1732674;82;21924;-69
2020/12/31 02:17:19;;;;;;;18.50;10.48;;;;;;;6.89;78.10;99951.92;1738301;81;21516;-69
2020/12/31 02:19:47;;;;;;;18.10;11.25;;;;;;;6.85;78.11;99947.37;1738078;81;21188;-69
2020/12/31 02:22:14;;;;;;;17.05;10.85;;;;;;;6.83;78.11;99942.68;1732123;82;21098;-69
2020/12/31 02:24:42;;;;;;;16.37;10.32;;;;;;;6.81;78.13;99935.86;1729804;83;21499;-69
2020/12/31 02:27:10;;;;;;;17.92;12.05;;;;;;;6.76;78.16;99929.64;1729739;83;22087;-69
2020/12/31 02:29:38;;;;;;;15.95;10.15;;;;;;;6.74;78.21;99930.67;1729757;81;21133;-68
2020/12/31 02:32:06;;;;;;;16.32;11.25;;;;;;;6.71;78.22;99929.59;1729780;81;21350;-69
2020/12/31 02:34:33;;;;;;;14.68;10.70;;;;;;;6.66;78.28;99935.17;1730010;81;21089;-69
2020/12/31 02:37:01;;;;;;;15.85;10.32;;;;;;;6.64;78.33;99930.95;1729755;81;21078;-69
2020/12/31 02:39:29;;;;;;;13.88;10.25;;;;;;;6.60;78.34;99931.19;1728747;81;21980;-69
2020/12/31 02:41:56;;;;;;;16.05;11.03;;;;;;;6.59;78.37;99935.23;1729164;81;21176;-69
2020/12/31 02:44:24;;;;;;;16.87;11.00;;;;;;;6.57;78.41;99938.44;1729965;81;21514;-69
2020/12/31 02:46:52;;;;;;;16.93;11.25;;;;;;;6.55;78.47;99933.75;1729916;81;21128;-69
2020/12/31 02:49:20;;;;;;;15.58;10.95;;;;;;;6.53;78.45;99925.99;1728852;81;21141;-69
2020/12/31 02:51:47;;;;;;;17.98;9.98;;;;;;;6.51;78.49;99930.52;1730387;81;21563;-69
2020/12/31 02:54:15;;;;;;;12.82;8.85;;;;;;;6.48;78.54;99932.52;1729178;83;21077;-69
2020/12/31 02:56:43;;;;;;;18.23;11.68;;;;;;;6.45;78.59;99929.62;1729915;81;21077;-69
2020/12/31 02:59:10;;;;;;;17.80;10.63;;;;;;;6.43;78.56;99929.36;1729295;81;21620;-69
2020/12/31 03:01:38;;;;;;;15.63;9.18;;;;;;;6.41;78.65;99933.88;1730046;81;21129;-68
2020/12/31 03:04:07;;;;;;;16.48;9.55;;;;;;;6.38;78.62;99928.86;1729818;81;21827;-68
2020/12/31 03:06:34;;;;;;;19.52;12.07;;;;;;;6.35;78.65;99928.58;1729789;81;21113;-69
2020/12/31 03:09:02;;;;;;;19.48;10.63;;;;;;;6.32;78.69;99939.29;1729648;81;21102;-69
2020/12/31 03:11:30;;;;;;;19.95;11.70;;;;;;;6.29;78.73;99935.09;1729885;81;21505;-69
2020/12/31 03:13:58;;;;;;;21.48;11.48;;;;;;;6.27;78.78;99933.50;1729819;81;21137;-68
2020/12/31 03:16:26;;;;;;;18.00;11.15;;;;;;;6.23;78.80;99932.89;1729893;81;22138;-68
2020/12/31 03:18:54;;;;;;;18.62;11.63;;;;;;;6.19;78.81;99930.13;1730072;81;22563;-68
2020/12/31 03:21:21;;;;;;;16.95;11.03;;;;;;;6.18;78.88;99938.94;1729869;81;21161;-69
2020/12/31 03:23:49;;;;;;;16.25;10.82;;;;;;;6.16;78.88;99936.86;1730325;81;21130;-69
2020/12/31 03:26:17;;;;;;;17.05;11.40;;;;;;;6.12;78.89;99929.33;1684438;81;21140;-70
2020/12/31 03:28:45;;;;;;;16.40;11.55;;;;;;;6.10;78.95;99932.05;1729521;81;21925;-69
2020/12/31 03:31:12;;;;;;;16.55;10.60;;;;;;;6.09;79.00;99933.47;1729568;83;21098;-69
2020/12/31 03:33:40;;;;;;;17.60;11.03;;;;;;;6.07;79.04;99936.65;1728590;81;21527;-69
2020/12/31 03:36:09;;;;;;;14.75;10.88;;;;;;;6.03;79.09;99935.55;1729895;81;21129;-69
2020/12/31 03:38:38;;;;;;;18.73;11.93;;;;;;;6.03;79.15;99940.80;1729876;81;21579;-70
2020/12/31 03:41:06;;;;;;;18.15;12.25;;;;;;;6.02;79.19;99939.59;1729707;81;21910;-69
2020/12/31 03:43:34;;;;;;;17.10;12.18;;;;;;;6.01;79.23;99941.38;1729905;81;21089;-69
2020/12/31 03:46:02;;;;;;;21.73;11.90;;;;;;;5.98;79.23;99932.42;1729628;83;21065;-69
2020/12/31 03:48:30;;;;;;;16.65;10.95;;;;;;;5.97;79.31;99934.64;1729802;81;21157;-69
2020/12/31 03:50:57;;;;;;;15.63;10.28;;;;;;;5.96;79.30;99934.28;1729873;81;21085;-70
2020/12/31 03:53:25;;;;;;;21.33;12.30;;;;;;;5.96;79.32;99926.89;1729917;81;21974;-69
2020/12/31 03:55:53;;;;;;;21.42;11.75;;;;;;;5.94;79.33;99924.84;1729635;81;21085;-69
2020/12/31 03:58:21;;;;;;;17.55;11.70;;;;;;;5.91;79.39;99923.75;1729697;81;21181;-69
2020/12/31 04:00:48;;;;;;;19.85;12.55;;;;;;;5.88;79.41;99927.84;1727339;81;21137;-69
2020/12/31 04:03:17;;;;;;;20.10;11.85;;;;;;;5.87;79.43;99931.41;1729770;81;21501;-69
2020/12/31 04:05:44;;;;;;;17.57;11.10;;;;;;;5.84;79.46;99928.53;1729967;81;22159;-69
2020/12/31 04:08:12;;;;;;;15.93;11.53;;;;;;;5.82;79.49;99922.55;1729635;81;21089;-69
2020/12/31 04:10:40;;;;;;;16.77;10.68;;;;;;;5.80;79.50;99926.23;1746271;81;21105;-69
2020/12/31 04:13:08;;;;;;;18.23;10.93;;;;;;;5.78;79.55;99926.77;1730802;82;21133;-69
2020/12/31 04:15:35;;;;;;;15.75;11.03;;;;;;;5.77;79.62;99928.56;1730451;81;21070;-69
2020/12/31 04:18:03;;;;;;;17.67;11.35;;;;;;;5.75;79.62;99931.76;1730097;81;21900;-69
2020/12/31 04:20:31;;;;;;;15.90;10.63;;;;;;;5.74;79.62;99935.33;1729988;81;21116;-69
2020/12/31 04:22:59;;;;;;;17.52;11.18;;;;;;;5.74;79.70;99945.33;1709937;82;21131;-69
2020/12/31 04:25:26;;;;;;;15.48;10.58;;;;;;;5.72;79.72;99935.43;1700840;83;21200;-69
2020/12/31 04:27:54;;;;;;;16.05;10.93;;;;;;;5.72;79.74;99939.83;1700789;83;21081;-69
2020/12/31 04:30:22;;;;;;;17.12;11.45;;;;;;;5.72;79.72;99938.05;1700819;83;22145;-69
2020/12/31 04:32:49;;;;;;;21.15;12.88;;;;;;;5.71;79.69;99942.09;1701620;83;21615;-69
2020/12/31 04:35:17;;;;;;;17.67;11.85;;;;;;;5.70;79.69;99939.10;1700590;84;21512;-69
2020/12/31 04:37:45;;;;;;;20.40;13.10;;;;;;;5.68;79.71;99940.48;1700759;84;21500;-69
2020/12/31 04:40:13;;;;;;;18.17;12.88;;;;;;;5.67;79.74;99948.45;1699873;83;21137;-69
2020/12/31 04:42:41;;;;;;;17.65;11.50;;;;;;;5.67;79.77;99953.69;1700933;83;21951;-69
2020/12/31 04:45:08;;;;;;;25.90;12.55;;;;;;;5.66;79.81;99952.02;1689717;84;21163;-69
2020/12/31 04:47:40;;;;;;;15.58;10.45;;;;;;;5.65;79.84;99946.41;1700923;83;21100;-69
2020/12/31 04:50:08;;;;;;;21.68;11.93;;;;;;;5.65;79.85;99949.87;1647655;84;21136;-68
2020/12/31 04:52:35;;;;;;;19.48;11.57;;;;;;;5.66;79.83;99950.70;1701300;83;21049;-68
2020/12/31 04:55:03;;;;;;;19.37;12.03;;;;;;;5.64;79.81;99952.59;1700785;83;22142;-68
2020/12/31 04:57:32;;;;;;;16.37;9.98;;;;;;;5.62;79.80;99955.32;1677103;84;21234;-68
2020/12/31 05:00:02;;;;;;;15.38;10.35;;;;;;;5.60;79.80;99954.59;1700805;83;21425;-69
2020/12/31 05:02:30;;;;;;;18.23;11.35;;;;;;;5.59;79.85;99955.97;1701051;83;21437;-68
2020/12/31 05:05:00;;;;;;;14.23;9.45;;;;;;;5.58;79.88;99955.13;1700607;83;21108;-68
2020/12/31 05:07:28;;;;;;;14.80;10.58;;;;;;;5.57;79.87;99956.55;1700934;83;22814;-69
2020/12/31 05:10:10;;;;;;;18.05;10.85;;;;;;;5.56;79.88;99962.26;1701071;83;21493;-69
2020/12/31 05:12:38;;;;;;;18.73;10.63;;;;;;;5.56;79.89;99966.19;1701283;83;21576;-72
2020/12/31 05:15:06;;;;;;;16.87;11.10;;;;;;;5.56;79.88;99969.28;1701009;83;21163;-72
2020/12/31 05:17:33;;;;;;;16.30;9.55;;;;;;;5.55;79.81;99980.70;1701244;83;21137;-72
2020/12/31 05:20:14;;;;;;;18.75;11.30;;;;;;;5.53;79.81;99987.36;1699646;83;22137;-72
2020/12/31 05:22:42;;;;;;;15.23;10.53;;;;;;;5.53;79.82;99982.11;1700731;82;21358;-72
2020/12/31 05:25:10;;;;;;;17.12;11.10;;;;;;;5.51;79.79;99978.77;1700700;83;21145;-72
2020/12/31 05:27:37;;;;;;;25.43;13.43;;;;;;;5.50;79.79;99980.14;1700922;83;21184;-72
2020/12/31 05:30:08;;;;;;;19.07;12.28;;;;;;;5.45;79.82;99972.13;1701292;83;21070;-72
2020/12/31 05:32:38;;;;;;;15.83;10.82;;;;;;;5.44;79.83;99977.47;1676935;84;22542;-72
2020/12/31 05:35:15;;;;;;;18.80;12.10;;;;;;;5.40;79.82;99974.66;1700880;83;21164;-72
2020/12/31 05:37:43;;;;;;;18.90;12.75;;;;;;;5.38;79.90;99983.09;1677918;84;21084;-72
2020/12/31 05:40:12;;;;;;;25.30;14.90;;;;;;;5.35;79.95;99984.61;1700502;83;21144;-72
2020/12/31 05:42:43;;;;;;;25.30;15.35;;;;;;;5.34;79.99;99986.86;1683778;83;21089;-71
2020/12/31 05:45:16;;;;;;;21.27;15.13;;;;;;;5.31;80.02;99980.05;1688940;83;22138;-72
2020/12/31 05:47:51;;;;;;;33.65;24.47;;;;;;;5.30;80.07;99991.43;1688270;83;21508;-72
2020/12/31 05:50:26;;;;;;;36.68;25.80;;;;;;;5.27;80.09;99994.72;1700126;83;21128;-71
2020/12/31 05:52:54;;;;;;;35.52;22.10;;;;;;;5.25;80.15;99993.52;1685227;83;21080;-72
2020/12/31 05:55:25;;;;;;;33.35;22.00;;;;;;;5.25;80.24;99988.28;1700845;84;21065;-72
2020/12/31 05:57:55;;;;;;;26.90;16.20;;;;;;;5.24;80.26;99990.53;1682626;83;21906;-72
2020/12/31 06:00:28;;;;;;;26.60;16.02;;;;;;;5.22;80.28;99990.27;1701035;83;21105;-72
2020/12/31 06:02:59;;;;;;;27.62;17.37;;;;;;;5.22;80.32;99992.41;1701016;83;21049;-72
2020/12/31 06:05:28;;;;;;;25.23;15.60;;;;;;;5.21;80.33;99995.10;1700347;83;21187;-72
2020/12/31 06:07:58;;;;;;;23.15;15.35;;;;;;;5.18;80.34;99990.44;1700881;83;21049;-73
2020/12/31 06:10:30;;;;;;;22.82;16.60;;;;;;;5.18;80.41;99990.91;1700928;83;21913;-73
2020/12/31 06:13:05;;;;;;;20.92;13.75;;;;;;;5.17;80.45;99982.69;1677648;83;21133;-72
2020/12/31 06:15:37;;;;;;;29.37;17.80;;;;;;;5.17;80.47;99980.06;1702831;83;21224;-73
2020/12/31 06:18:06;;;;;;;28.73;19.52;;;;;;;5.18;80.53;99984.36;1700614;83;21355;-73
2020/12/31 06:20:39;;;;;;;25.23;15.70;;;;;;;5.20;80.55;99992.11;1700622;84;21346;-69
2020/12/31 06:23:12;;;;;;;31.70;18.05;;;;;;;5.20;80.58;99992.95;1699631;83;22218;-71
2020/12/31 06:25:46;;;;;;;27.70;15.13;;;;;;;5.22;80.59;99995.03;1700902;84;21112;-70
2020/12/31 06:28:20;;;;;;;28.30;16.82;;;;;;;5.25;80.62;99995.30;1700997;84;21065;-70
2020/12/31 06:30:54;;;;;;;22.25;14.75;;;;;;;5.27;80.64;99994.25;1700837;84;21172;-69
2020/12/31 06:33:47;;;;;;;23.02;16.42;;;;;;;5.29;80.65;99994.98;1700705;83;21219;-68
2020/12/31 06:36:15;;;;;;;24.80;16.00;;;;;;;5.31;80.66;99988.38;1703196;83;22087;-70
2020/12/31 06:38:50;;;;;;;22.32;13.40;;;;;;;5.32;80.63;99986.13;1700768;83;21121;-69
2020/12/31 06:41:38;;;;;;;21.48;13.35;;;;;;;5.33;80.60;99989.95;1695269;84;21201;-70
2020/12/31 06:44:20;;;;;;;33.40;20.15;;;;;;;5.34;80.55;99987.70;1697047;83;21188;-73
2020/12/31 06:46:50;;;;;;;41.23;23.35;;;;;;;5.36;80.50;99994.98;1700896;84;21128;-75
2020/12/31 06:49:18;;;;;;;40.95;22.60;;;;;;;5.36;80.47;99994.98;1700844;84;22083;-71
2020/12/31 06:51:46;;;;;;;42.80;24.40;;;;;;;5.37;80.45;99999.75;1700908;84;21109;-75
2020/12/31 06:54:28;;;;;;;58.15;31.55;;;;;;;5.39;80.46;100003.09;1700645;83;21073;-70
2020/12/31 06:56:57;;;;;;;45.40;27.10;;;;;;;5.40;80.40;100007.40;1701042;83;21078;-74
2020/12/31 06:59:35;;;;;;;37.48;22.40;;;;;;;5.41;80.40;100009.95;1701341;83;21069;-82
2020/12/31 07:02:13;;;;;;;31.52;19.23;;;;;;;5.44;80.37;100001.88;1700902;83;21918;-70
2020/12/31 07:04:41;;;;;;;23.62;15.83;;;;;;;5.46;80.37;100008.33;1676344;84;21167;-73
2020/12/31 07:07:26;;;;;;;27.22;17.55;;;;;;;5.50;80.34;100011.58;1677542;83;21630;-73
2020/12/31 07:10:02;;;;;;;22.40;16.57;;;;;;;5.51;80.34;100008.88;1700318;84;21492;-73
2020/12/31 07:12:36;;;;;;;22.05;13.95;;;;;;;5.55;80.29;100010.83;1694565;84;21124;-73
2020/12/31 07:15:04;;;;;;;27.22;17.77;;;;;;;5.57;80.27;100002.39;1667356;85;22090;-74
2020/12/31 07:17:38;;;;;;;21.97;14.10;;;;;;;5.59;80.20;100004.44;1667123;86;21510;-73
2020/12/31 07:20:15;;;;;;;23.83;14.68;;;;;;;5.61;80.15;100006.05;1667248;85;21105;-73
2020/12/31 07:22:43;;;;;;;21.68;14.25;;;;;;;5.64;80.14;100008.92;1640078;86;21199;-73
2020/12/31 07:25:17;;;;;;;25.02;15.65;;;;;;;5.66;80.08;100008.34;1716986;83;21506;-73
2020/12/31 07:27:47;;;;;;;18.82;13.68;;;;;;;5.66;80.03;100003.11;1729659;83;21917;-73
2020/12/31 07:30:22;;;;;;;24.35;14.95;;;;;;;5.68;80.02;100008.61;1729722;83;21513;-73
2020/12/31 07:33:00;;;;;;;22.55;15.25;;;;;;;5.72;79.98;100004.03;1701150;83;21161;-73
2020/12/31 07:35:39;;;;;;;24.43;15.60;;;;;;;5.73;79.91;100003.09;1729608;83;21125;-73
2020/12/31 07:38:13;;;;;;;29.02;15.83;;;;;;;5.75;79.91;100001.20;1729728;83;21073;-73
2020/12/31 07:40:45;;;;;;;22.05;14.55;;;;;;;5.78;79.83;99994.44;1726648;83;22090;-73
2020/12/31 07:43:17;;;;;;;20.88;14.50;;;;;;;5.79;79.78;99998.77;1729443;83;21090;-73
2020/12/31 07:45:49;;;;;;;21.55;15.38;;;;;;;5.80;79.71;100000.45;1729705;83;21066;-73
2020/12/31 07:48:19;;;;;;;24.50;15.00;;;;;;;5.79;79.63;99998.77;1729631;83;21078;-73
2020/12/31 07:50:48;;;;;;;25.12;17.35;;;;;;;5.80;79.62;99999.14;1729263;83;21474;-74
2020/12/31 07:53:16;;;;;;;23.20;15.20;;;;;;;5.80;79.63;100005.69;1700826;83;22093;-70
2020/12/31 07:55:51;;;;;;;22.35;15.40;;;;;;;5.83;79.68;100005.47;1725021;83;21097;-72
2020/12/31 07:58:24;;;;;;;28.80;15.80;;;;;;;5.85;79.66;100007.52;1724200;83;21156;-72
2020/12/31 08:01:06;;;;;;;22.58;15.65;;;;;;;5.89;79.66;100019.97;1729090;83;21145;-72
2020/12/31 08:03:34;;;;;;;22.52;14.60;;;;;;;5.91;79.65;100016.80;1728732;83;21093;-72
2020/12/31 08:06:07;;;;;;;23.95;14.35;;;;;;;5.93;79.70;100011.83;1729639;83;21904;-72
2020/12/31 08:08:34;;;;;;;24.82;15.88;;;;;;;5.95;79.65;100019.58;1729701;83;21090;-71
2020/12/31 08:11:09;;;;;;;24.43;15.13;;;;;;;5.96;79.63;100016.86;1729620;83;21490;-72
2020/12/31 08:13:38;;;;;;;26.65;16.40;;;;;;;5.98;79.62;100015.44;1729632;83;21608;-71
2020/12/31 08:16:08;;;;;;;28.77;16.82;;;;;;;6.00;79.67;100007.03;1729548;83;21073;-71
2020/12/31 08:18:36;;;;;;;23.83;15.25;;;;;;;6.02;79.72;100014.31;1729644;83;22003;-71
2020/12/31 08:21:05;;;;;;;23.27;15.32;;;;;;;6.04;79.72;100017.66;1678119;83;21085;-71
2020/12/31 08:23:40;;;;;;;24.57;15.70;;;;;;;6.07;79.71;100019.23;1729393;83;21069;-71
2020/12/31 08:26:09;;;;;;;21.73;13.70;;;;;;;6.09;79.74;100015.59;1729736;83;21627;-71
2020/12/31 08:28:37;;;;;;;20.17;13.88;;;;;;;6.13;79.71;100020.98;1729670;83;21086;-72
2020/12/31 08:31:13;;;;;;;23.42;15.35;;;;;;;6.13;79.71;100018.37;1701439;83;21501;-71
2020/12/31 08:33:40;;;;;;;24.57;14.38;;;;;;;6.16;79.72;100022.55;1729543;83;21441;-71
2020/12/31 08:36:08;;;;;;;26.90;16.45;;;;;;;6.17;79.76;100025.55;1700953;83;21120;-72
2020/12/31 08:38:37;;;;;;;29.35;17.32;;;;;;;6.16;79.78;100020.77;1729617;83;21096;-72
2020/12/31 08:41:07;;;;;;;24.72;16.00;;;;;;;6.18;79.80;100028.09;1700588;84;21366;-71
2020/12/31 08:43:38;;;;;;;22.75;14.80;;;;;;;6.20;79.83;100024.05;1700511;84;22081;-72
2020/12/31 08:46:20;;;;;;;29.10;16.75;;;;;;;6.22;79.85;100023.00;1700494;84;21386;-71
2020/12/31 08:48:54;;;;;;;25.27;15.28;;;;;;;6.24;79.82;100019.80;1700943;83;21540;-71
2020/12/31 08:51:30;;;;;;;30.77;20.88;;;;;;;6.25;79.82;100020.63;1686516;83;38392;-71
2020/12/31 08:53:59;;;;;;;23.22;14.93;;;;;;;6.30;79.87;100015.46;1702506;83;21208;-71
2020/12/31 08:56:30;;;;;;;28.98;15.93;;;;;;;6.37;79.85;100011.96;1729662;83;22072;-71
2020/12/31 08:59:13;;;;;;;20.05;14.00;;;;;;;6.39;79.77;100013.16;1729286;83;21164;-71
2020/12/31 09:01:42;;;;;;;21.33;13.28;;;;;;;6.37;79.76;100010.66;1729634;83;21125;-71
2020/12/31 09:04:18;;;;;;;24.43;15.43;;;;;;;6.40;79.81;100014.84;1729601;83;21168;-71
2020/12/31 09:06:47;;;;;;;24.15;15.45;;;;;;;6.40;79.75;100006.97;1700943;83;21105;-71
2020/12/31 09:09:28;;;;;;;25.45;14.95;;;;;;;6.41;79.74;100006.02;1729554;83;22066;-72
2020/12/31 09:11:58;;;;;;;26.82;16.90;;;;;;;6.40;79.66;100009.12;1729558;83;21107;-72
2020/12/31 09:14:26;;;;;;;28.77;17.00;;;;;;;6.41;79.62;100011.27;1729725;83;21486;-72
2020/12/31 09:16:55;;;;;;;27.70;17.48;;;;;;;6.41;79.62;100002.92;1729623;83;21069;-72
2020/12/31 09:19:23;;;;;;;27.52;15.08;;;;;;;6.43;79.60;100004.13;1729649;83;21082;-72
2020/12/31 09:21:51;;;;;;;23.02;15.25;;;;;;;6.45;79.51;100003.55;1729584;83;22080;-71
2020/12/31 09:24:23;;;;;;;32.45;18.37;;;;;;;6.46;79.48;100006.53;1726990;83;21101;-73
2020/12/31 09:26:59;;;;;;;26.05;15.80;;;;;;;6.45;79.32;100006.17;1699540;84;21121;-72
2020/12/31 09:29:29;;;;;;;25.92;16.15;;;;;;;6.45;79.28;99997.83;1725119;83;21161;-71
2020/12/31 09:31:56;;;;;;;27.35;19.37;;;;;;;6.47;79.30;99992.50;1707770;84;21062;-71
2020/12/31 09:34:24;;;;;;;33.35;20.05;;;;;;;6.48;79.27;99997.64;1707681;84;21498;-72
2020/12/31 09:37:00;;;;;;;32.78;20.10;;;;;;;6.49;79.21;99992.75;1707695;84;21063;-72
2020/12/31 09:39:28;;;;;;;25.25;16.07;;;;;;;6.52;79.18;99999.56;1707765;83;21182;-71
2020/12/31 09:41:56;;;;;;;27.77;16.35;;;;;;;6.54;79.14;99997.67;1707672;84;21071;-71
2020/12/31 09:44:23;;;;;;;22.80;13.95;;;;;;;6.54;79.09;100002.92;1707776;84;21046;-71
2020/12/31 09:46:51;;;;;;;28.98;17.95;;;;;;;6.54;78.99;99999.82;1707732;84;21979;-71
2020/12/31 09:49:19;;;;;;;32.55;19.57;;;;;;;6.53;79.01;99997.30;1707720;84;21083;-71
2020/12/31 09:51:47;;;;;;;26.60;16.23;;;;;;;6.53;79.01;100002.08;1707926;84;21335;-71
2020/12/31 09:54:14;;;;;;;27.00;16.37;;;;;;;6.54;79.02;99993.27;1707873;84;21062;-71
2020/12/31 09:56:42;;;;;;;43.87;24.05;;;;;;;6.56;78.93;99989.22;1707933;84;21064;-71
2020/12/31 09:59:10;;;;;;;48.48;25.85;;;;;;;6.54;78.90;99980.62;1707781;84;22089;-71
2020/12/31 10:01:38;;;;;;;55.90;27.13;;;;;;;6.53;78.94;99979.78;1707860;84;21190;-72
2020/12/31 10:04:06;;;;;;;64.27;30.65;;;;;;;6.54;79.00;99976.20;1707899;84;21419;-71
2020/12/31 10:06:37;;;;;;;58.80;30.65;;;;;;;6.55;78.98;99971.33;1707896;84;21524;-73
2020/12/31 10:09:04;;;;;;;35.92;19.17;;;;;;;6.57;79.04;99976.49;1707887;84;21047;-73
2020/12/31 10:11:32;;;;;;;24.77;15.55;;;;;;;6.56;79.07;99970.84;1707940;82;23091;-72
2020/12/31 10:14:00;;;;;;;28.57;16.00;;;;;;;6.53;79.07;99973.22;1688558;84;21182;-72
2020/12/31 10:16:27;;;;;;;24.82;16.05;;;;;;;6.49;79.16;99966.99;1699523;84;21205;-72
2020/12/31 10:18:55;;;;;;;24.40;15.43;;;;;;;6.46;79.22;99964.08;1725282;83;21090;-72
2020/12/31 10:21:22;;;;;;;30.60;18.00;;;;;;;6.45;79.34;99962.87;1699561;84;21504;-73
2020/12/31 10:23:50;;;;;;;31.52;15.85;;;;;;;6.45;79.39;99958.47;1719979;82;22150;-72
2020/12/31 10:26:20;;;;;;;28.20;17.10;;;;;;;6.48;79.50;99952.20;1677653;85;21600;-71
2020/12/31 10:28:49;;;;;;;29.52;17.37;;;;;;;6.49;79.54;99952.56;1697792;84;21093;-71
2020/12/31 10:31:17;;;;;;;37.90;20.23;;;;;;;6.50;79.58;99942.43;1697725;84;21170;-72
2020/12/31 10:33:45;;;;;;;31.07;18.67;;;;;;;6.52;79.66;99944.47;1697750;84;21054;-72
2020/12/31 10:36:12;;;;;;;53.45;26.25;;;;;;;6.54;79.76;99943.41;1697788;84;22033;-72
2020/12/31 10:38:41;;;;;;;81.65;35.92;;;;;;;6.56;79.79;99937.61;1697756;83;21538;-72
2020/12/31 10:41:14;;;;;;;75.78;32.63;;;;;;;6.57;79.88;99934.03;1697773;84;21131;-72
2020/12/31 10:43:42;;;;;;;66.50;30.15;;;;;;;6.56;79.94;99932.80;1697797;84;21115;-73
2020/12/31 10:46:11;;;;;;;80.55;36.90;;;;;;;6.53;80.07;99923.84;1697655;84;21118;-71
2020/12/31 10:48:41;;;;;;;97.45;38.78;;;;;;;6.54;80.14;99925.04;1697743;84;22147;-72
2020/12/31 10:51:08;;;;;;;124.42;48.65;;;;;;;6.57;80.22;99920.08;1697707;84;21130;-72
2020/12/31 10:53:36;;;;;;;86.78;41.23;;;;;;;6.60;80.21;99921.16;1697672;84;21336;-71
2020/12/31 10:56:04;;;;;;;89.92;40.05;;;;;;;6.63;80.20;99917.00;1697770;84;21073;-71
2020/12/31 10:58:34;;;;;;;92.85;43.85;;;;;;;6.67;80.17;99917.17;1695271;83;21193;-70
2020/12/31 11:01:04;;;;;;;80.28;37.53;;;;;;;6.71;80.13;99925.66;1671652;84;22128;-68
2020/12/31 11:03:31;;;;;;;118.53;52.43;;;;;;;6.71;80.10;99921.72;1697576;84;21138;-71
2020/12/31 11:06:00;;;;;;;79.00;35.70;;;;;;;6.70;80.02;99921.36;1697212;84;21119;-70
2020/12/31 11:08:27;;;;;;;88.58;39.50;;;;;;;6.69;79.98;99923.62;1697435;84;21175;-70
2020/12/31 11:10:55;;;;;;;81.65;39.55;;;;;;;6.67;79.95;99923.73;1697782;83;21065;-71
2020/12/31 11:13:25;;;;;;;65.28;31.20;;;;;;;6.67;79.94;99916.33;1681327;84;21988;-69
2020/12/31 11:15:53;;;;;;;61.13;30.68;;;;;;;6.66;79.93;99914.63;1696349;84;21165;-68
2020/12/31 11:18:21;;;;;;;61.80;29.35;;;;;;;6.70;79.94;99912.17;1676035;84;21204;-69
2020/12/31 11:20:53;;;;;;;53.02;27.65;;;;;;;6.70;79.91;99914.80;1696528;84;22706;-69
2020/12/31 11:23:21;;;;;;;47.90;26.87;;;;;;;6.70;79.78;99916.11;1695676;84;21211;-69
2020/12/31 11:25:48;;;;;;;62.90;31.27;;;;;;;6.69;79.77;99916.58;1702555;84;21919;-69
2020/12/31 11:28:16;;;;;;;77.03;41.63;;;;;;;6.71;79.70;99925.17;1714396;83;21141;-69
2020/12/31 11:30:44;;;;;;;68.47;34.80;;;;;;;6.71;79.70;99925.17;1714167;83;21152;-67
2020/12/31 11:33:11;;;;;;;47.45;26.45;;;;;;;6.70;79.65;99921.36;1714538;82;21209;-68
2020/12/31 11:35:39;;;;;;;51.88;26.85;;;;;;;6.70;79.66;99923.50;1714631;83;21200;-68